Time;durP1;ratioP1;P1;durP2;ratioP2;P2;SDS_P1;SDS_P2;PMS_P1;PMS_P2;Temp;Humidity;BMP_temperature;BMP_pressure;BME280_temperature;BME280_humidity;BME280_pressure;Samples;Min_cycle;Max_cycle;Signal;HPM_P1;HPM_P2
2022/05/12 00:00:35;;;;;;;;;10.00;8.25;;;;;16.87;53.70;101504.00;146619;591;45016;-71
2022/05/12 00:03:29;;;;;;;;;13.25;9.75;;;;;16.78;54.04;101501.03;146613;580;45020;-71
2022/05/12 00:06:21;;;;;;;;;7.00;7.00;;;;;16.74;53.99;101496.50;146615;564;46011;-72
2022/05/12 00:09:13;;;;;;;;;8.00;8.00;;;;;16.71;53.77;101491.13;146618;579;45020;-71
2022/05/12 00:12:05;;;;;;;;;10.50;8.25;;;;;16.76;53.91;101501.00;146615;591;45012;-72
2022/05/12 00:14:57;;;;;;;;;9.75;9.50;;;;;16.77;53.61;101502.78;146618;573;45021;-72
2022/05/12 00:17:49;;;;;;;;;8.00;8.00;;;;;16.74;53.54;101502.62;146619;619;45016;-74
2022/05/12 00:20:44;;;;;;;;;8.00;8.00;;;;;16.69;53.61;101488.44;146617;567;46010;-73
2022/05/12 00:23:36;;;;;;;;;13.00;10.50;;;;;16.67;53.66;101497.09;146617;582;45016;-72
2022/05/12 00:26:34;;;;;;;;;10.00;10.00;;;;;16.60;53.92;101504.72;146619;611;45020;-72
2022/05/12 00:29:26;;;;;;;;;10.50;10.25;;;;;16.54;54.01;101496.62;146616;599;46012;-77
2022/05/12 00:32:18;;;;;;;;;12.00;11.50;;;;;16.49;55.00;101500.78;146612;579;46010;-73
2022/05/12 00:35:12;;;;;;;;;11.00;11.00;;;;;16.46;55.00;101499.75;146615;564;45017;-83
2022/05/12 00:38:04;;;;;;;;;14.25;12.00;;;;;16.43;54.98;101492.69;146617;570;46010;-81
2022/05/12 00:40:56;;;;;;;;;9.75;8.75;;;;;16.40;55.94;101500.41;146620;571;45012;-69
2022/05/12 00:43:55;;;;;;;;;13.25;12.00;;;;;16.34;55.43;101490.59;146615;585;46010;-69
2022/05/12 00:46:50;;;;;;;;;13.25;9.25;;;;;16.30;55.73;101493.03;146614;614;46012;-72
2022/05/12 00:49:44;;;;;;;;;15.00;12.00;;;;;16.28;55.74;101495.56;146603;612;46020;-71
2022/05/12 00:52:37;;;;;;;;;16.75;14.50;;;;;16.31;56.71;101498.31;146600;586;46017;-74
2022/05/12 00:55:35;;;;;;;;;21.75;12.50;;;;;16.30;57.00;101504.37;146605;595;46010;-71
2022/05/12 00:58:27;;;;;;;;;14.50;12.50;;;;;16.23;57.40;101509.28;146602;614;46916;-69
2022/05/12 01:01:19;;;;;;;;;15.00;12.00;;;;;16.14;58.93;101495.03;146589;572;46020;-70
2022/05/12 01:04:12;;;;;;;;;13.75;12.50;;;;;16.08;57.44;101497.38;146601;566;46916;-69
2022/05/12 01:07:03;;;;;;;;;16.50;11.00;;;;;16.07;59.63;101494.69;146605;609;46020;-69
2022/05/12 01:09:56;;;;;;;;;15.25;11.50;;;;;15.99;58.52;101502.25;146602;659;46012;-69
2022/05/12 01:12:51;;;;;;;;;10.00;10.00;;;;;15.97;58.16;101505.63;146596;569;46021;-71
2022/05/12 01:15:54;;;;;;;;;13.75;11.00;;;;;15.97;58.92;101503.00;146599;594;47012;-71
2022/05/12 01:18:46;;;;;;;;;10.00;8.50;;;;;15.88;60.68;101504.37;146603;573;46010;-70
2022/05/12 01:21:38;;;;;;;;;9.50;9.00;;;;;15.78;59.56;101502.22;146607;587;46014;-70
2022/05/12 01:24:45;;;;;;;;;11.75;10.50;;;;;15.68;58.79;101503.56;146603;575;46020;-73
2022/05/12 01:27:37;;;;;;;;;10.75;10.00;;;;;15.64;58.56;101505.94;146596;627;46916;-77
2022/05/12 01:30:30;;;;;;;;;10.25;9.00;;;;;15.62;57.91;101502.38;146591;569;46012;-76
2022/05/12 01:33:22;;;;;;;;;10.75;10.50;;;;;15.64;57.55;101509.47;146601;576;46016;-78
2022/05/12 01:36:14;;;;;;;;;11.25;11.00;;;;;15.64;58.00;101500.72;146601;586;46021;-72
2022/05/12 01:39:08;;;;;;;;;9.50;8.00;;;;;15.65;57.23;101503.38;146605;578;46012;-73
2022/05/12 01:42:00;;;;;;;;;9.25;9.00;;;;;15.64;56.66;101503.34;146605;572;45021;-72
2022/05/12 01:44:52;;;;;;;;;10.25;7.25;;;;;15.61;56.35;101497.97;146599;681;47014;-73
2022/05/12 01:47:46;;;;;;;;;8.00;7.00;;;;;15.59;56.74;101494.41;146601;590;46020;-74
2022/05/12 01:50:38;;;;;;;;;9.00;9.00;;;;;15.60;56.50;101494.44;146602;602;46013;-74
2022/05/12 01:53:30;;;;;;;;;9.00;9.00;;;;;15.58;56.35;101492.62;146603;648;46019;-73
2022/05/12 01:56:22;;;;;;;;;8.25;8.00;;;;;15.56;56.09;101487.31;146602;736;46012;-78
2022/05/12 01:59:14;;;;;;;;;9.50;7.75;;;;;15.59;56.19;101494.41;146590;590;47010;-75
2022/05/12 02:02:07;;;;;;;;;6.50;6.50;;;;;15.60;55.96;101490.94;146599;571;46035;-74
2022/05/12 02:04:59;;;;;;;;;9.00;8.75;;;;;15.62;56.08;101490.19;146605;575;46010;-74
2022/05/12 02:07:53;;;;;;;;;8.00;8.00;;;;;15.63;55.82;101489.34;146598;584;47012;-74
2022/05/12 02:10:47;;;;;;;;;11.00;10.00;;;;;15.67;55.67;101495.66;146603;577;46020;-73
2022/05/12 02:13:39;;;;;;;;;7.50;7.25;;;;;15.68;56.31;101494.81;146603;566;47012;-73
2022/05/12 02:16:33;;;;;;;;;8.50;8.25;;;;;14.70;56.59;101339.00;146604;604;46010;-73
2022/05/12 02:19:27;;;;;;;;;10.50;9.25;;;;;15.52;56.92;101493.25;146604;569;46016;-79
2022/05/12 02:22:19;;;;;;;;;8.00;7.00;;;;;15.42;57.11;101493.63;146603;607;46012;-81
2022/05/12 02:25:12;;;;;;;;;10.50;10.00;;;;;15.33;56.96;101496.78;146602;588;46016;-78
2022/05/12 02:28:04;;;;;;;;;10.00;9.50;;;;;15.25;57.28;101491.19;146594;578;46020;-78
2022/05/12 02:30:56;;;;;;;;;11.50;10.00;;;;;15.18;58.30;101496.97;146591;572;48916;-79
2022/05/12 02:33:48;;;;;;;;;13.25;10.00;;;;;15.12;58.60;101495.81;146601;578;46020;-75
2022/05/12 02:36:40;;;;;;;;;9.25;9.25;;;;;15.06;58.12;101499.03;146600;592;46016;-76
2022/05/12 02:39:35;;;;;;;;;9.75;9.75;;;;;15.00;58.66;101497.03;146602;632;46021;-75
2022/05/12 02:42:27;;;;;;;;;8.50;8.50;;;;;14.94;58.68;101494.13;146605;569;46012;-70
2022/05/12 02:45:20;;;;;;;;;11.00;9.75;;;;;14.93;59.27;101494.09;146599;739;48010;-71
2022/05/12 02:48:12;;;;;;;;;13.50;11.25;;;;;14.88;60.64;101490.34;146603;625;46013;-74
2022/05/12 02:51:05;;;;;;;;;13.25;11.50;;;;;14.83;59.81;101490.16;146603;619;46020;-74
2022/05/12 02:53:57;;;;;;;;;11.00;11.00;;;;;14.82;59.07;101490.06;146599;701;46016;-75
2022/05/12 02:56:55;;;;;;;;;13.00;12.00;;;;;14.84;59.42;101493.66;146593;620;46011;-74
2022/05/12 02:59:48;;;;;;;;;11.00;9.75;;;;;14.84;58.89;101488.44;146601;666;46016;-75
2022/05/12 03:02:40;;;;;;;;;12.50;12.00;;;;;14.85;59.18;101491.09;146602;625;46020;-70
2022/05/12 03:05:32;;;;;;;;;10.75;10.75;;;;;14.86;58.62;101489.38;146602;601;46012;-72
2022/05/12 03:08:25;;;;;;;;;8.75;7.25;;;;;14.87;58.25;101491.19;146601;569;46020;-73
2022/05/12 03:11:17;;;;;;;;;6.75;6.75;;;;;14.91;57.85;101493.09;146601;740;46016;-72
2022/05/12 03:14:09;;;;;;;;;11.50;8.25;;;;;14.89;58.13;101486.91;146603;574;46020;-74
2022/05/12 03:17:01;;;;;;;;;13.25;10.25;;;;;14.82;57.96;101490.97;146603;597;46012;-73
2022/05/12 03:19:53;;;;;;;;;8.50;7.75;;;;;14.79;58.05;101488.22;146603;616;46021;-72
2022/05/12 03:22:45;;;;;;;;;9.50;9.50;;;;;14.79;58.18;101496.03;146600;615;46016;-73
2022/05/12 03:25:37;;;;;;;;;10.00;9.00;;;;;14.80;58.19;101497.84;146590;569;47010;-73
2022/05/12 03:28:30;;;;;;;;;12.50;12.00;;;;;14.82;57.99;101508.34;146599;569;46031;-74
2022/05/12 03:31:22;;;;;;;;;12.75;12.25;;;;;13.83;58.70;101323.72;146603;597;46020;-68
2022/05/12 03:34:14;;;;;;;;;10.50;10.25;;;;;14.91;58.54;101509.66;146589;636;47916;-77
2022/05/12 03:37:07;;;;;;;;;11.00;10.75;;;;;14.94;58.59;101506.31;146603;737;46010;-72
2022/05/12 03:39:59;;;;;;;;;13.25;11.00;;;;;14.96;58.16;101509.91;146599;576;46916;-72
2022/05/12 03:42:52;;;;;;;;;12.75;12.75;;;;;15.00;58.01;101511.81;146606;604;46012;-72
2022/05/12 03:45:44;;;;;;;;;12.25;9.75;;;;;15.03;58.00;101517.19;146604;579;46012;-72
2022/05/12 03:48:40;;;;;;;;;13.75;12.00;;;;;15.08;58.05;101520.91;146601;575;46020;-74
2022/05/12 03:51:32;;;;;;;;;12.50;10.00;;;;;15.13;58.05;101528.94;146602;569;46033;-73
2022/05/12 03:54:24;;;;;;;;;11.25;8.50;;;;;15.17;58.42;101537.00;146592;566;46020;-74
2022/05/12 03:57:17;;;;;;;;;10.25;9.75;;;;;15.19;58.42;101530.09;146598;617;46016;-73
2022/05/12 04:00:12;;;;;;;;;11.00;10.75;;;;;15.20;58.29;101533.59;146601;650;46916;-74
2022/05/12 04:03:05;;;;;;;;;17.67;15.67;;;;;15.23;58.90;101544.19;146599;672;47014;-73
2022/05/12 04:06:02;;;;;;;;;12.50;11.00;;;;;15.27;59.02;101538.31;146602;594;46020;-73
2022/05/12 04:08:54;;;;;;;;;13.00;11.25;;;;;15.28;59.34;101547.03;146600;613;46016;-72
2022/05/12 04:11:47;;;;;;;;;17.00;15.75;;;;;15.27;59.86;101551.38;146606;579;46010;-72
2022/05/12 04:14:40;;;;;;;;;13.25;12.50;;;;;15.25;59.52;101553.88;146603;571;46014;-72
2022/05/12 04:17:32;;;;;;;;;12.00;11.00;;;;;15.25;59.18;101551.28;146601;572;46021;-76
2022/05/12 04:20:24;;;;;;;;;11.00;9.50;;;;;15.31;59.49;101548.06;146601;571;46016;-75
2022/05/12 04:23:16;;;;;;;;;11.00;10.75;;;;;15.41;60.09;101551.97;146591;585;46020;-75
2022/05/12 04:26:08;;;;;;;;;12.75;11.75;;;;;15.52;61.55;101553.34;146598;584;46916;-73
2022/05/12 04:29:00;;;;;;;;;11.50;11.00;;;;;15.61;61.37;101548.53;146603;600;46010;-75
2022/05/12 04:31:52;;;;;;;;;12.50;12.50;;;;;15.75;60.61;101551.78;146603;582;47012;-78
2022/05/12 04:37:58;;;;;;;;;13.50;12.75;;;;;16.15;60.02;101556.09;146599;671;46914;-73
2022/05/12 04:40:52;;;;;;;;;13.50;11.00;;;;;16.42;59.80;101550.19;146602;570;47010;-73
2022/05/12 04:43:44;;;;;;;;;16.75;12.25;;;;;16.70;59.40;101555.72;146601;600;46916;-73
2022/05/12 04:46:37;;;;;;;;;13.25;12.00;;;;;17.00;58.74;101556.03;146602;594;46011;-74
2022/05/12 04:49:29;;;;;;;;;13.25;13.25;;;;;17.31;57.83;101565.06;146601;585;47012;-75
2022/05/12 04:52:21;;;;;;;;;16.25;16.00;;;;;17.58;56.81;101564.28;146591;604;46010;-73
2022/05/12 04:55:13;;;;;;;;;16.75;15.00;;;;;17.85;56.16;101570.56;146600;620;46017;-73
2022/05/12 04:58:06;;;;;;;;;16.00;15.00;;;;;18.09;54.48;101567.88;146596;579;46010;-73
2022/05/12 05:00:59;;;;;;;;;17.00;16.00;;;;;18.28;53.69;101568.50;146600;610;46012;-74
2022/05/12 05:03:51;;;;;;;;;14.00;13.25;;;;;18.42;53.37;101559.34;146605;621;45021;-74
2022/05/12 05:06:43;;;;;;;;;18.00;14.25;;;;;18.56;53.87;101565.91;146599;579;46016;-74
2022/05/12 05:09:36;;;;;;;;;14.75;12.75;;;;;18.66;54.66;101567.09;146601;600;46031;-75
2022/05/12 05:12:28;;;;;;;;;15.75;13.75;;;;;18.75;54.30;101570.03;146597;612;46016;-75
2022/05/12 05:15:20;;;;;;;;;13.75;12.75;;;;;18.92;53.87;101567.97;146604;663;46020;-75
2022/05/12 05:18:18;;;;;;;;;23.25;17.25;;;;;19.11;54.22;101567.66;146599;664;46017;-76
2022/05/12 05:21:10;;;;;;;;;21.25;16.75;;;;;19.32;53.81;101572.66;146590;588;46916;-75
2022/05/12 05:24:03;;;;;;;;;15.75;15.50;;;;;19.54;51.88;101566.28;146603;571;46016;-75
2022/05/12 05:26:55;;;;;;;;;18.00;17.25;;;;;19.76;50.93;101569.53;146601;618;46020;-76
2022/05/12 05:29:48;;;;;;;;;19.00;18.25;;;;;19.99;50.99;101564.88;146601;615;46016;-76
2022/05/12 05:32:41;;;;;;;;;21.50;19.00;;;;;20.20;51.04;101570.69;146604;634;46010;-75
2022/05/12 05:35:34;;;;;;;;;25.25;22.75;;;;;20.43;49.37;101570.38;146599;570;46014;-76
2022/05/12 05:38:26;;;;;;;;;17.75;17.50;;;;;20.57;48.67;101568.13;146601;592;46021;-71
2022/05/12 05:41:18;;;;;;;;;26.00;24.00;;;;;20.68;47.45;101567.50;146599;569;46016;-71
2022/05/12 05:44:10;;;;;;;;;25.75;22.00;;;;;20.83;47.05;101564.31;146605;586;46010;-70
2022/05/12 05:47:03;;;;;;;;;27.00;23.50;;;;;21.00;47.17;101572.63;146602;604;46017;-70
2022/05/12 05:49:55;;;;;;;;;24.25;20.25;;;;;21.17;47.05;101576.50;146592;602;46012;-73
2022/05/12 05:56:04;;;;;;;;;26.00;22.50;;;;;21.43;45.62;101578.81;146604;613;45021;-71
2022/05/12 05:58:56;;;;;;;;;21.50;20.00;;;;;21.49;46.10;101578.94;146602;566;46012;-75
2022/05/12 06:01:48;;;;;;;;;23.25;20.25;;;;;21.60;45.80;101595.91;146605;602;46011;-75
2022/05/12 06:04:40;;;;;;;;;21.75;18.75;;;;;21.74;45.84;101590.88;146600;584;46014;-76
2022/05/12 06:07:33;;;;;;;;;16.00;16.00;;;;;21.86;45.64;101585.81;146604;650;45020;-72
2022/05/12 06:10:25;;;;;;;;;28.75;23.75;;;;;21.96;45.93;101594.81;146600;575;46916;-80
2022/05/12 06:13:18;;;;;;;;;22.50;20.00;;;;;22.07;45.79;101593.25;146600;639;46030;-80
2022/05/12 06:16:10;;;;;;;;;26.00;23.50;;;;;22.24;45.67;101601.53;146599;588;46916;-83
2022/05/12 06:19:03;;;;;;;;;23.75;19.00;;;;;22.41;46.37;101606.22;146591;586;46010;-81
2022/05/12 06:21:54;;;;;;;;;29.00;26.00;;;;;22.57;45.87;101609.09;146602;587;46012;-80
2022/05/12 06:24:47;;;;;;;;;23.00;21.75;;;;;22.66;45.13;101607.50;146599;601;46021;-75
2022/05/12 06:27:40;;;;;;;;;22.00;18.75;;;;;22.73;46.12;101606.72;146598;600;46016;-76
2022/05/12 06:30:32;;;;;;;;;20.75;18.00;;;;;21.86;44.43;101464.37;146603;667;46020;-74
2022/05/12 06:33:24;;;;;;;;;20.75;18.75;;;;;22.65;44.79;101610.97;146596;626;46012;-73
2022/05/12 06:36:16;;;;;;;;;17.50;16.25;;;;;21.31;45.71;101383.31;146602;640;46030;-74
2022/05/12 06:39:09;;;;;;;;;19.50;18.50;;;;;22.68;44.95;101617.22;146601;629;46017;-74
2022/05/12 06:42:01;;;;;;;;;20.50;19.75;;;;;22.67;45.49;101614.53;146600;639;46020;-74
2022/05/12 06:44:54;;;;;;;;;17.50;14.50;;;;;22.63;45.14;101612.72;146599;628;46016;-74
2022/05/12 06:47:51;;;;;;;;;16.50;15.50;;;;;22.57;47.37;101619.69;146591;682;46021;-74
2022/05/12 06:50:42;;;;;;;;;17.75;16.25;;;;;22.56;48.97;101612.63;146598;581;46016;-75
2022/05/12 06:53:35;;;;;;;;;17.75;17.00;;;;;22.65;49.71;101621.56;146599;595;47020;-77
2022/05/12 06:56:26;;;;;;;;;13.00;12.00;;;;;22.62;51.16;101621.50;146599;595;46016;-73
2022/05/12 06:59:19;;;;;;;;;16.50;15.25;;;;;22.59;51.43;101622.38;146602;706;46020;-77
2022/05/12 07:02:11;;;;;;;;;12.75;12.75;;;;;22.65;51.01;101629.47;146600;615;46016;-74
2022/05/12 07:05:03;;;;;;;;;15.25;13.00;;;;;22.72;51.39;101634.91;146602;612;46010;-72
2022/05/12 07:07:56;;;;;;;;;13.75;13.25;;;;;22.77;50.49;101634.97;146602;626;46016;-71
2022/05/12 07:10:48;;;;;;;;;15.50;13.50;;;;;22.84;49.86;101636.87;146603;611;46029;-72
2022/05/12 07:13:41;;;;;;;;;12.25;10.25;;;;;22.94;47.65;101627.34;146600;563;46016;-76
2022/05/12 07:16:33;;;;;;;;;11.50;10.25;;;;;23.10;49.26;101625.81;146589;630;46020;-78
2022/05/12 07:19:25;;;;;;;;;15.50;13.25;;;;;23.30;48.90;101629.59;146596;645;47016;-76
2022/05/12 07:28:37;;;;;;;;;15.00;13.50;;;;;23.86;47.80;101629.47;146603;581;46022;-76
2022/05/12 07:31:30;;;;;;;;;15.75;13.25;;;;;24.16;46.19;101626.22;146600;588;46032;-76
2022/05/12 07:34:23;;;;;;;;;15.50;12.50;;;;;24.41;44.34;101627.38;146601;569;46020;-76
2022/05/12 07:37:16;;;;;;;;;16.50;13.25;;;;;24.51;44.03;101633.63;146601;640;46013;-77
2022/05/12 07:40:09;;;;;;;;;11.25;11.25;;;;;24.55;43.68;101631.88;146602;556;46020;-75
2022/05/12 07:43:01;;;;;;;;;13.00;13.00;;;;;24.60;41.83;101635.47;146592;675;46016;-76
2022/05/12 07:45:54;;;;;;;;;14.75;11.25;;;;;24.66;42.98;101639.06;146592;694;46021;-74
2022/05/12 07:48:47;;;;;;;;;10.00;7.00;;;;;24.74;41.89;101640.91;146599;604;46040;-76
2022/05/12 07:51:39;;;;;;;;;10.25;9.50;;;;;24.77;38.70;101641.81;146603;686;46010;-75
2022/05/12 07:54:31;;;;;;;;;11.50;11.50;;;;;24.79;41.08;101645.34;146603;680;46012;-76
2022/05/12 07:57:23;;;;;;;;;9.75;9.00;;;;;24.87;41.86;101643.63;146600;570;46020;-76
2022/05/12 08:00:16;;;;;;;;;12.00;12.00;;;;;24.41;42.09;101553.13;146601;616;46916;-75
2022/05/12 08:03:09;;;;;;;;;9.00;9.00;;;;;25.09;42.65;101649.09;146601;572;46020;-76
2022/05/12 08:06:02;;;;;;;;;11.00;10.00;;;;;25.20;43.82;101643.87;146592;658;48916;-75
2022/05/12 08:08:55;;;;;;;;;11.25;10.00;;;;;25.23;41.82;101636.81;146602;601;46021;-75
2022/05/12 08:11:47;;;;;;;;;15.25;14.00;;;;;25.11;44.30;101637.59;146598;685;46016;-74
2022/05/12 08:14:40;;;;;;;;;11.00;11.00;;;;;24.95;42.83;101632.19;146593;581;46010;-74
2022/05/12 08:17:32;;;;;;;;;13.75;12.00;;;;;24.94;44.29;101628.66;146603;648;46012;-75
2022/05/12 08:20:25;;;;;;;;;12.50;11.50;;;;;25.06;43.63;101631.38;146600;626;47010;-75
2022/05/12 08:23:17;;;;;;;;;14.00;11.00;;;;;25.23;43.87;101636.81;146601;656;46012;-74
2022/05/12 08:26:09;;;;;;;;;11.50;10.25;;;;;25.44;44.39;101633.37;146601;566;46020;-78
2022/05/12 08:29:01;;;;;;;;;13.75;11.75;;;;;25.63;40.28;101642.28;146600;629;46017;-75
2022/05/12 08:31:54;;;;;;;;;14.25;12.50;;;;;25.65;40.60;101639.66;146592;627;47916;-76
2022/05/12 08:34:45;;;;;;;;;10.75;10.00;;;;;25.63;41.08;101639.63;146602;680;46012;-76
2022/05/12 08:37:38;;;;;;;;;10.75;9.75;;;;;25.53;40.37;101632.53;146600;666;46021;-75
2022/05/12 08:41:12;;;;;;;;;13.00;10.75;;;;;24.64;43.81;101486.09;146598;626;48012;-75
2022/05/12 08:44:13;;;;;;;;;9.25;9.25;;;;;25.64;41.96;101636.13;146590;579;46020;-76
2022/05/12 08:47:07;;;;;;;;;12.00;10.00;;;;;25.74;39.98;101637.03;146597;639;46016;-76
2022/05/12 08:50:02;;;;;;;;;11.50;8.25;;;;;25.84;35.74;101635.31;146603;574;45020;-74
2022/05/12 08:53:05;;;;;;;;;10.25;10.00;;;;;25.95;37.08;101636.22;146601;674;45040;-74
2022/05/12 08:56:00;;;;;;;;;11.33;10.00;;;;;26.17;39.20;101631.88;146604;640;46020;-76
2022/05/12 08:58:54;;;;;;;;;9.33;9.00;;;;;26.28;35.75;101632.75;146601;588;46016;-76
2022/05/12 09:02:32;;;;;;;;;13.00;11.00;;;;;26.35;39.62;101636.28;146601;599;47010;-76
2022/05/12 09:05:30;;;;;;;;;10.00;9.00;;;;;26.42;34.29;101640.75;146601;590;46016;-76
2022/05/12 09:09:00;;;;;;;;;11.25;8.50;;;;;25.64;38.36;101495.34;146603;569;47010;-75
2022/05/12 09:12:40;;;;;;;;;7.33;7.33;;;;;25.12;37.59;101365.16;146598;586;46016;-75
2022/05/12 09:15:37;;;;;;;;;9.25;7.50;;;;;26.75;33.40;101637.19;146592;688;46010;-74
2022/05/12 09:18:34;;;;;;;;;11.00;8.00;;;;;26.77;34.08;101634.56;146599;650;46033;-74
2022/05/12 09:21:35;;;;;;;;;10.67;8.67;;;;;26.62;30.09;101633.66;146605;647;46010;-74
2022/05/12 09:24:27;;;;;;;;;9.67;8.00;;;;;26.57;31.68;101642.53;146602;600;46016;-76
2022/05/12 09:27:20;;;;;;;;;11.50;11.50;;;;;26.56;31.55;101632.78;146605;590;46020;-78
2022/05/12 09:30:15;;;;;;;;;13.00;9.00;;;;;26.63;31.58;101626.56;146600;573;46016;-75
2022/05/12 09:33:07;;;;;;;;;6.00;6.00;;;;;26.68;28.98;101630.13;146603;578;46020;-76
2022/05/12 09:36:02;;;;;;;;;9.00;8.00;;;;;26.71;30.16;101628.34;146604;571;46016;-76
2022/05/12 09:38:58;;;;;;;;;8.00;7.50;;;;;26.63;30.70;101613.25;146603;573;46010;-76
2022/05/12 09:41:50;;;;;;;;;8.33;7.00;;;;;26.65;30.88;101617.69;146594;602;47012;-74
2022/05/12 09:44:42;;;;;;;;;7.67;7.67;;;;;26.81;34.38;101613.25;146591;578;47010;-77
2022/05/12 09:47:35;;;;;;;;;7.75;6.50;;;;;26.97;33.02;101610.56;146599;679;47014;-75
2022/05/12 09:50:29;;;;;;;;;8.33;7.33;;;;;27.13;33.89;101610.53;146607;577;45021;-75
2022/05/12 09:53:33;;;;;;;;;9.00;7.67;;;;;27.28;36.16;101609.59;146598;606;46016;-78
2022/05/12 09:56:39;;;;;;;;;6.25;5.75;;;;;27.34;35.26;101606.03;146606;634;45020;-77
2022/05/12 09:59:34;;;;;;;;;10.00;9.00;;;;;27.39;34.37;101606.91;146597;631;46017;-76
2022/05/12 10:09:32;;;;;;;;;9.00;7.00;;;;;26.76;29.60;101451.84;146604;591;46022;-74
2022/05/12 10:12:34;;;;;;;;;7.50;6.25;;;;;27.59;30.97;101597.03;146601;616;46017;-76
2022/05/12 10:15:35;;;;;;;;;8.00;7.00;;;;;27.56;31.24;101604.16;146594;569;46010;-76
2022/05/12 10:18:51;;;;;;;;;8.00;8.00;;;;;27.55;31.21;101592.63;146602;575;46012;-75
2022/05/12 10:21:49;;;;;;;;;9.25;8.50;;;;;27.64;32.78;101583.69;146604;631;46010;-76
2022/05/12 10:25:23;;;;;;;;;10.00;8.75;;;;;26.93;29.05;101439.34;146603;644;47012;-76
2022/05/12 10:28:46;;;;;;;;;8.50;7.50;;;;;27.91;33.91;101582.66;146596;577;46032;-76
2022/05/12 10:32:06;;;;;;;;;10.00;9.75;;;;;28.02;32.74;101586.13;146603;699;46012;-76
2022/05/12 10:35:39;;;;;;;;;7.25;7.25;;;;;27.14;30.87;101436.63;146602;593;46010;-74
2022/05/12 10:38:58;;;;;;;;;8.50;8.00;;;;;27.97;32.69;101577.28;146606;652;45018;-76
2022/05/12 10:42:21;;;;;;;;;7.25;6.25;;;;;28.06;30.88;101584.31;146605;581;46010;-75
2022/05/12 10:46:12;;;;;;;;;11.00;8.50;;;;;27.24;32.91;101425.91;146604;666;46012;-75
2022/05/12 10:49:55;;;;;;;;;11.50;8.25;;;;;27.32;31.96;101418.72;146613;565;46010;-77
2022/05/12 10:53:28;;;;;;;;;9.50;8.00;;;;;28.07;32.02;101571.00;146621;605;45916;-75
2022/05/12 10:56:46;;;;;;;;;9.25;8.00;;;;;27.89;31.52;101572.94;146615;583;46010;-75
2022/05/12 11:00:19;;;;;;;;;8.75;8.00;;;;;26.91;29.12;101411.84;146619;683;45014;-74
2022/05/12 11:03:26;;;;;;;;;7.75;7.00;;;;;27.72;29.55;101551.66;146622;569;45010;-75
2022/05/12 11:06:23;;;;;;;;;8.25;8.00;;;;;27.76;27.92;101554.31;146621;563;45012;-74
2022/05/12 11:09:25;;;;;;;;;6.00;6.00;;;;;27.78;30.02;101555.19;146619;592;46012;-74
2022/05/12 11:12:48;;;;;;;;;6.00;6.00;;;;;27.74;28.35;101555.22;146618;615;45917;-75
2022/05/12 11:16:15;;;;;;;;;10.00;7.00;;;;;26.81;25.42;101397.72;146622;565;45025;-74
2022/05/12 11:19:18;;;;;;;;;7.67;6.67;;;;;27.68;28.46;101539.25;146620;588;46012;-73
2022/05/12 11:22:45;;;;;;;;;5.75;5.75;;;;;26.86;31.09;101403.91;146610;588;45916;-74
2022/05/12 11:26:04;;;;;;;;;8.00;8.00;;;;;27.80;29.53;101533.88;146621;580;46011;-74
2022/05/12 11:33:16;;;;;;;;;7.67;6.00;;;;;26.48;27.34;101260.47;146618;642;46010;-75
2022/05/12 11:36:11;;;;;;;;;7.25;6.25;;;;;28.06;27.14;101513.22;146621;611;45030;-73
2022/05/12 11:39:51;;;;;;;;;9.33;7.00;;;;;27.36;31.52;101378.78;146620;594;45016;-71
2022/05/12 11:46:47;;;;;;;;;8.50;7.25;;;;;28.39;28.96;101510.28;146621;575;46010;-72
2022/05/12 11:50:14;;;;;;;;;6.00;5.67;;;;;28.29;29.11;101472.16;146620;633;45021;-77
2022/05/12 11:53:40;;;;;;;;;8.33;7.00;;;;;28.45;25.12;101505.78;146619;706;45016;-73
2022/05/12 11:56:57;;;;;;;;;6.00;5.25;;;;;27.58;30.65;101360.84;146612;656;45021;-73
2022/05/12 11:59:54;;;;;;;;;4.67;4.67;;;;;28.33;30.04;101512.09;146619;598;45914;-73
2022/05/12 12:02:51;;;;;;;;;7.00;7.00;;;;;28.24;26.33;101500.63;146622;713;45020;-72
2022/05/12 12:06:10;;;;;;;;;8.75;6.00;;;;;27.34;31.00;101343.28;146617;570;45016;-72
2022/05/12 12:09:33;;;;;;;;;10.00;8.00;;;;;27.46;30.82;101352.94;146613;648;46022;-73
2022/05/12 12:13:07;;;;;;;;;7.00;7.00;;;;;27.56;30.93;101349.28;146620;593;46010;-72
2022/05/12 12:16:10;;;;;;;;;7.67;7.00;;;;;28.43;29.30;101501.37;146619;595;45010;-72
2022/05/12 12:19:05;;;;;;;;;7.25;6.00;;;;;28.46;28.69;101494.22;146619;564;46916;-73
2022/05/12 12:22:37;;;;;;;;;8.00;7.00;;;;;27.62;31.58;101346.56;146621;588;45027;-72
2022/05/12 12:25:42;;;;;;;;;6.75;5.75;;;;;28.43;27.36;101480.91;146618;657;46010;-71
2022/05/12 12:29:17;;;;;;;;;8.50;5.50;;;;;28.49;30.98;101478.19;146615;602;46010;-72
2022/05/12 12:32:35;;;;;;;;;6.50;6.50;;;;;28.56;29.88;101476.31;146614;565;45030;-71
2022/05/12 12:35:32;;;;;;;;;9.00;8.25;;;;;28.59;29.93;101467.41;146621;714;45010;-71
2022/05/12 12:39:08;;;;;;;;;9.75;8.75;;;;;28.65;31.82;101470.87;146618;690;46010;-72
2022/05/12 12:42:45;;;;;;;;;10.00;9.25;;;;;28.78;31.40;101467.19;146620;564;45916;-71
2022/05/12 12:45:37;;;;;;;;;8.75;7.25;;;;;28.87;30.06;101452.81;146620;649;46914;-73
2022/05/12 12:48:38;;;;;;;;;12.00;9.25;;;;;28.86;31.06;101455.53;146606;597;46010;-73
2022/05/12 12:51:36;;;;;;;;;12.25;9.50;;;;;28.74;30.99;101462.75;146601;594;46016;-71
2022/05/12 12:57:52;;;;;;;;;9.25;9.25;;;;;28.54;32.32;101459.47;146601;588;46018;-73
2022/05/12 13:00:44;;;;;;;;;10.75;10.00;;;;;28.44;31.62;101452.44;146588;635;46020;-72
2022/05/12 13:03:39;;;;;;;;;9.00;9.00;;;;;28.36;31.72;101443.63;146601;669;46017;-72
2022/05/12 13:06:37;;;;;;;;;7.75;7.75;;;;;28.27;31.37;101439.28;146603;708;46010;-72
2022/05/12 13:09:42;;;;;;;;;11.50;10.50;;;;;28.24;31.82;101431.31;146602;566;47013;-72
2022/05/12 13:12:34;;;;;;;;;8.00;8.00;;;;;28.22;31.85;101438.44;146603;563;46020;-73
2022/05/12 13:15:27;;;;;;;;;10.25;9.25;;;;;28.22;33.52;101433.09;146604;564;46012;-72
2022/05/12 13:18:28;;;;;;;;;10.00;10.00;;;;;28.23;33.18;101421.56;146603;596;46010;-73
2022/05/12 13:21:36;;;;;;;;;11.00;10.00;;;;;28.18;32.73;101426.91;146601;689;47012;-73
2022/05/12 13:24:32;;;;;;;;;9.75;9.75;;;;;28.06;30.76;101421.69;146600;588;46020;-72
2022/05/12 13:27:29;;;;;;;;;11.25;9.25;;;;;27.98;32.04;101415.59;146604;683;45916;-72
2022/05/12 13:30:30;;;;;;;;;8.00;7.00;;;;;27.85;31.77;101398.78;146592;634;46010;-71
2022/05/12 13:33:32;;;;;;;;;10.25;10.25;;;;;27.59;32.42;101402.56;146596;576;46016;-71
2022/05/12 13:36:27;;;;;;;;;10.75;10.00;;;;;27.38;31.95;101408.03;146601;573;46030;-71
2022/05/12 13:39:49;;;;;;;;;10.25;9.75;;;;;27.25;32.14;101407.25;146599;661;46016;-70
2022/05/12 13:42:49;;;;;;;;;13.50;12.00;;;;;27.20;32.02;101401.09;146602;585;46012;-71
2022/05/12 13:45:41;;;;;;;;;14.00;10.00;;;;;27.08;32.92;101401.12;146603;575;46916;-71
2022/05/12 13:48:34;;;;;;;;;11.50;9.00;;;;;26.93;33.26;101392.34;146602;623;46020;-71
2022/05/12 13:51:55;;;;;;;;;10.00;8.75;;;;;26.83;34.36;101390.63;146593;697;47012;-72
2022/05/12 13:55:24;;;;;;;;;14.00;9.25;;;;;25.08;32.65;101111.31;146597;586;47010;-71
2022/05/12 13:58:21;;;;;;;;;8.50;7.75;;;;;26.53;32.72;101388.97;146596;716;46038;-72
2022/05/12 14:01:13;;;;;;;;;12.50;10.25;;;;;26.35;33.25;101373.06;146591;677;46020;-72
2022/05/12 14:04:35;;;;;;;;;9.25;9.25;;;;;24.68;33.27;101082.19;146602;569;46916;-71
2022/05/12 14:07:34;;;;;;;;;11.25;10.50;;;;;26.20;33.62;101374.91;146603;591;46022;-70
2022/05/12 14:10:39;;;;;;;;;11.75;9.50;;;;;26.19;33.55;101370.44;146602;671;46916;-70